True Love — WDG3367 — position and weather

sailwx.info

Track history (hours):
 
Tides and Currents Weather Stations Pressure Air Temp Water Temp Dewpoint Dewpoint Depression Visibility Wind Speed Wind Dir Waves Ship Positions

True Love

Owner: Spady, James R, Snoqualmie Pass, WA. More information available from US FCC via Universal Licensing System and Coast Guard Vessel Documentation Center.

Last reported at 2016-Jul-23 22:33 UTC. Time now 2016-Jul-24 00:59 UTC.
Position N 50°21' W 125°08'.

Length 16 m.

Type: Pleasure craft. MMSI: 367525310.

Date/timePositionNaut miles runAvg speedWind from/ knotsBaromVisibWave heightAir tempDewpointWater temp
2016-Jul-23 22:33N 50°21' W 125°08'5 5.4
2016-Jul-23 21:33N 50°16' W 125°13'0 0.0
2016-Jul-23 20:06N 50°16' W 125°13'0 0.0
2016-Jul-23 18:30N 50°16' W 125°13'0 0.0
2016-Jul-23 17:15N 50°16' W 125°13'0 0.0
2016-Jul-23 02:21N 50°16' W 125°13'4 4.3
2016-Jul-23 01:20N 50°20' W 125°09'  
2016-Jul-19 18:10N 50°11' W 125°22'10 0.5
2016-Jul-18 20:33N 50°03' W 125°14'5 5.1
2016-Jul-18 19:33N 49°60' W 125°08'7 7.1
2016-Jul-18 18:33N 50°07' W 125°10'7 6.9
2016-Jul-18 17:33N 50°14' W 125°09'4 2.7
2016-Jul-18 16:09N 50°16' W 125°13'0 0.0
2016-Jul-18 15:27N 50°16' W 125°13'0 0.0
2016-Jul-18 13:33N 50°16' W 125°13'0 0.0
2016-Jul-18 10:30N 50°16' W 125°13'0 0.0
2016-Jul-18 09:21N 50°16' W 125°13'0 0.0
2016-Jul-18 07:33N 50°16' W 125°13'0 0.0
2016-Jul-18 05:27N 50°16' W 125°13'0 0.0
2016-Jul-18 04:33N 50°16' W 125°13'0 0.0
2016-Jul-18 03:30N 50°16' W 125°13'0 0.0
2016-Jul-18 02:27N 50°16' W 125°13'0 0.0
2016-Jul-17 23:33N 50°16' W 125°13'6 5.3
2016-Jul-17 22:30N 50°21' W 125°08'1 0.0
2016-Jul-15 20:32N 50°20' W 125°07'5 2.4
2016-Jul-15 18:27N 50°16' W 125°13'0 0.0
2016-Jul-15 11:18N 50°16' W 125°13'0 0.0
2016-Jul-15 10:15N 50°16' W 125°13'0 0.0
2016-Jul-15 09:27N 50°16' W 125°13'0 0.0
2016-Jul-15 08:30N 50°16' W 125°13'0 0.0
2016-Jul-15 07:33N 50°16' W 125°13'0 0.0
2016-Jul-15 06:21N 50°16' W 125°13'0 0.0
2016-Jul-15 04:27N 50°16' W 125°13'0 0.0
2016-Jul-15 02:15N 50°16' W 125°13'0 0.0
2016-Jul-15 01:33N 50°16' W 125°13'0 0.0
2016-Jul-14 21:09N 50°16' W 125°13'0 0.0
2016-Jul-14 20:33N 50°16' W 125°13'0 0.0
2016-Jul-14 19:33N 50°16' W 125°13'0 0.0
2016-Jul-14 18:33N 50°16' W 125°13'0 0.0
2016-Jul-14 03:04N 50°17' W 125°13'0 0.4
2016-Jul-14 02:28N 50°17' W 125°13'6 6.1
2016-Jul-14 01:33N 50°18' W 125°04'8 7.9
2016-Jul-14 00:33N 50°12' W 124°56'8 7.7
2016-Jul-13 23:32N 50°05' W 124°50'  
Track history (hours):
 
Tides and Currents Weather Stations Pressure Air Temp Water Temp Dewpoint Dewpoint Depression Visibility Wind Speed Wind Dir Waves Ship Positions

True Love

Owner: Spady, James R, Snoqualmie Pass, WA. More information available from US FCC via Universal Licensing System and Coast Guard Vessel Documentation Center.

Last reported at 2016-Jul-23 22:33 UTC. Time now 2016-Jul-24 00:59 UTC.
Position N 50°21' W 125°08'.

Length 16 m.

Type: Pleasure craft. MMSI: 367525310.

Date/timePositionNaut miles runAvg speedWind from/ knotsBaromVisibWave heightAir tempDewpointWater temp
2016-Jul-23 22:33N 50°21' W 125°08'5 5.4
2016-Jul-23 21:33N 50°16' W 125°13'0 0.0
2016-Jul-23 20:06N 50°16' W 125°13'0 0.0
2016-Jul-23 18:30N 50°16' W 125°13'0 0.0
2016-Jul-23 17:15N 50°16' W 125°13'0 0.0
2016-Jul-23 02:21N 50°16' W 125°13'4 4.3
2016-Jul-23 01:20N 50°20' W 125°09'  
2016-Jul-19 18:10N 50°11' W 125°22'10 0.5
2016-Jul-18 20:33N 50°03' W 125°14'5 5.1
2016-Jul-18 19:33N 49°60' W 125°08'7 7.1
2016-Jul-18 18:33N 50°07' W 125°10'7 6.9
2016-Jul-18 17:33N 50°14' W 125°09'4 2.7
2016-Jul-18 16:09N 50°16' W 125°13'0 0.0
2016-Jul-18 15:27N 50°16' W 125°13'0 0.0
2016-Jul-18 13:33N 50°16' W 125°13'0 0.0
2016-Jul-18 10:30N 50°16' W 125°13'0 0.0
2016-Jul-18 09:21N 50°16' W 125°13'0 0.0
2016-Jul-18 07:33N 50°16' W 125°13'0 0.0
2016-Jul-18 05:27N 50°16' W 125°13'0 0.0
2016-Jul-18 04:33N 50°16' W 125°13'0 0.0
2016-Jul-18 03:30N 50°16' W 125°13'0 0.0
2016-Jul-18 02:27N 50°16' W 125°13'0 0.0
2016-Jul-17 23:33N 50°16' W 125°13'6 5.3
2016-Jul-17 22:30N 50°21' W 125°08'1 0.0
2016-Jul-15 20:32N 50°20' W 125°07'5 2.4
2016-Jul-15 18:27N 50°16' W 125°13'0 0.0
2016-Jul-15 11:18N 50°16' W 125°13'0 0.0
2016-Jul-15 10:15N 50°16' W 125°13'0 0.0
2016-Jul-15 09:27N 50°16' W 125°13'0 0.0
2016-Jul-15 08:30N 50°16' W 125°13'0 0.0
2016-Jul-15 07:33N 50°16' W 125°13'0 0.0
2016-Jul-15 06:21N 50°16' W 125°13'0 0.0
2016-Jul-15 04:27N 50°16' W 125°13'0 0.0
2016-Jul-15 02:15N 50°16' W 125°13'0 0.0
2016-Jul-15 01:33N 50°16' W 125°13'0 0.0
2016-Jul-14 21:09N 50°16' W 125°13'0 0.0
2016-Jul-14 20:33N 50°16' W 125°13'0 0.0
2016-Jul-14 19:33N 50°16' W 125°13'0 0.0
2016-Jul-14 18:33N 50°16' W 125°13'0 0.0
2016-Jul-14 03:04N 50°17' W 125°13'0 0.4
2016-Jul-14 02:28N 50°17' W 125°13'6 6.1
2016-Jul-14 01:33N 50°18' W 125°04'8 7.9
2016-Jul-14 00:33N 50°12' W 124°56'8 7.7
2016-Jul-13 23:32N 50°05' W 124°50'  

Dump ship's entire track history